Terminal Aerodrome Forecast
Issued by NWS

Home | Current Version | Previous Version | Text Only | Print | Product List | Glossary On
Versions: 1 2 3 4 5 6 7 8 9 10 11 12 13 14 15 16 17 18 19 20 21 22 23 24 25
000
FTUS43 KEAX 191700
TAFMKC
TAF
KMKC 191727Z 1918/2018 17007KT P6SM OVC013
      TEMPO 1918/1919 6SM HZ
     FM192200 18007KT P6SM SCT025
     FM200600 19007KT 5SM BR BKN008
     FM201400 22008KT P6SM SCT050=

USA.gov is the U.S. government's official web portal to all federal, state and local government web resources and services.